createdAt,value
2023-03-22T00:02:13.679Z,6.36
2023-03-22T00:04:42.958Z,6.25
2023-03-22T00:07:09.653Z,6.20
2023-03-22T00:09:36.623Z,6.26
2023-03-22T00:12:03.934Z,6.24
2023-03-22T00:14:30.554Z,6.19
2023-03-22T00:16:57.173Z,6.26
2023-03-22T00:19:23.876Z,6.22
2023-03-22T00:21:51.439Z,6.19
2023-03-22T00:24:18.191Z,6.10
2023-03-22T00:26:47.026Z,6.01
2023-03-22T00:29:14.230Z,5.83
2023-03-22T00:31:41.718Z,5.81
2023-03-22T00:34:08.405Z,5.85
2023-03-22T00:36:37.801Z,5.88
2023-03-22T00:39:04.394Z,5.76
2023-03-22T00:41:30.988Z,5.66
2023-03-22T00:43:57.535Z,5.65
2023-03-22T00:46:24.147Z,5.58
2023-03-22T00:48:50.882Z,5.54
2023-03-22T00:51:18.083Z,5.49
2023-03-22T00:53:45.271Z,5.42
2023-03-22T00:56:16.028Z,5.37
2023-03-22T00:59:00.318Z,5.26
2023-03-22T01:01:29.460Z,5.28
2023-03-22T01:03:56.066Z,5.16
2023-03-22T01:06:22.703Z,5.13
2023-03-22T01:08:50.871Z,5.05
2023-03-22T01:11:18.040Z,5.02
2023-03-22T01:13:45.582Z,4.93
2023-03-22T01:16:12.236Z,4.94
2023-03-22T01:18:40.804Z,4.88
2023-03-22T01:21:08.698Z,4.84
2023-03-22T01:23:37.280Z,4.91
2023-03-22T01:26:05.229Z,4.84
2023-03-22T01:28:31.963Z,4.77
2023-03-22T01:31:02.959Z,4.80
2023-03-22T01:33:30.304Z,4.71
2023-03-22T01:35:56.948Z,4.65
2023-03-22T01:38:23.964Z,4.62
2023-03-22T01:40:55.695Z,4.52
2023-03-22T01:43:22.454Z,4.50
2023-03-22T01:45:51.535Z,4.52
2023-03-22T01:48:27.907Z,4.55
2023-03-22T01:51:22.579Z,4.47
2023-03-22T01:54:10.629Z,4.53
2023-03-22T01:56:41.026Z,4.55
2023-03-22T01:59:14.636Z,4.53
2023-03-22T02:02:05.909Z,4.43
2023-03-22T02:04:36.733Z,4.35
2023-03-22T02:07:15.333Z,4.34
2023-03-22T02:09:43.832Z,4.31
2023-03-22T02:12:32.207Z,4.23
2023-03-22T02:15:35.880Z,4.21
2023-03-22T02:18:46.907Z,4.13
2023-03-22T02:21:16.374Z,4.05
2023-03-22T02:24:25.144Z,4.04
2023-03-22T02:27:06.382Z,4.00
2023-03-22T02:29:46.395Z,4.04
2023-03-22T02:32:12.968Z,4.04
2023-03-22T02:35:04.567Z,3.91
2023-03-22T02:37:52.447Z,3.79
2023-03-22T02:40:39.898Z,3.78
2023-03-22T02:43:30.954Z,3.79
2023-03-22T02:46:06.212Z,3.80
2023-03-22T02:48:40.429Z,3.81
2023-03-22T02:51:13.614Z,3.79
2023-03-22T02:53:52.464Z,3.80
2023-03-22T02:56:33.723Z,3.86
2023-03-22T02:59:04.367Z,3.74
2023-03-22T03:01:38.042Z,3.63
2023-03-22T03:04:09.723Z,3.66
2023-03-22T03:06:39.864Z,3.70
2023-03-22T03:09:08.445Z,3.62
2023-03-22T03:11:35.211Z,3.71
2023-03-22T03:14:01.893Z,3.60
2023-03-22T03:16:34.978Z,3.63
2023-03-22T03:19:20.340Z,3.63
2023-03-22T03:22:04.160Z,3.61
2023-03-22T03:24:39.354Z,3.56
2023-03-22T03:27:17.613Z,3.59
2023-03-22T03:30:11.607Z,3.62
2023-03-22T03:32:47.918Z,3.63
2023-03-22T03:35:25.584Z,3.55
2023-03-22T03:38:02.614Z,3.54
2023-03-22T03:40:41.164Z,3.57
2023-03-22T03:43:09.774Z,3.55
2023-03-22T03:45:37.691Z,3.53
2023-03-22T03:48:09.147Z,3.53
2023-03-22T03:50:37.330Z,3.57
2023-03-22T03:53:04.836Z,3.57
2023-03-22T03:55:32.789Z,3.51
2023-03-22T03:57:59.430Z,3.43
2023-03-22T04:00:26.049Z,3.44
2023-03-22T04:03:19.109Z,3.40
2023-03-22T04:06:00.122Z,3.37
2023-03-22T04:08:28.567Z,3.37
2023-03-22T04:10:55.385Z,3.33
2023-03-22T04:13:22.036Z,3.30
2023-03-22T04:15:53.919Z,3.27
2023-03-22T04:18:21.321Z,3.23
2023-03-22T04:20:49.502Z,3.25
2023-03-22T04:23:16.816Z,3.24
2023-03-22T04:25:50.091Z,3.27
2023-03-22T04:28:24.017Z,3.23
2023-03-22T04:30:52.350Z,3.21
2023-03-22T04:33:56.121Z,3.09
2023-03-22T04:36:36.582Z,3.11
2023-03-22T04:39:13.675Z,3.07
2023-03-22T04:41:44.949Z,3.03
2023-03-22T04:44:11.840Z,2.97
2023-03-22T04:46:44.627Z,2.89
2023-03-22T04:49:11.366Z,2.91
2023-03-22T04:51:40.404Z,2.95
2023-03-22T04:54:28.511Z,2.91
2023-03-22T04:56:55.498Z,2.84
2023-03-22T04:59:24.030Z,2.84
2023-03-22T05:01:51.497Z,2.87
2023-03-22T05:04:22.237Z,2.88
2023-03-22T05:06:53.773Z,2.96
2023-03-22T05:09:26.298Z,2.92
2023-03-22T05:11:54.108Z,2.90
2023-03-22T05:14:37.976Z,2.86
2023-03-22T05:17:06.598Z,2.91
2023-03-22T05:19:36.437Z,2.80
2023-03-22T05:22:03.062Z,2.85
2023-03-22T05:24:41.169Z,2.94
2023-03-22T05:27:14.165Z,2.95
2023-03-22T05:29:45.103Z,2.91
2023-03-22T05:32:29.156Z,2.89
2023-03-22T05:34:56.357Z,2.81
2023-03-22T05:37:32.560Z,2.88
2023-03-22T05:39:59.984Z,2.83
2023-03-22T05:42:36.479Z,2.88
2023-03-22T05:45:12.563Z,2.96
2023-03-22T05:47:41.381Z,3.05
2023-03-22T05:50:17.766Z,3.04
2023-03-22T05:52:45.579Z,3.12
2023-03-22T05:55:20.371Z,3.27
2023-03-22T05:57:51.521Z,3.32
2023-03-22T06:00:18.865Z,3.35
2023-03-22T06:03:05.538Z,3.31
2023-03-22T06:05:38.139Z,3.33
2023-03-22T06:08:04.902Z,3.44
2023-03-22T06:10:31.591Z,3.43
2023-03-22T06:12:58.345Z,3.46
2023-03-22T06:15:28.932Z,3.52
2023-03-22T06:18:05.372Z,3.55
2023-03-22T06:20:37.045Z,3.53
2023-03-22T06:23:09.636Z,3.61
2023-03-22T06:25:38.469Z,3.61
2023-03-22T06:28:08.541Z,3.70
2023-03-22T06:30:36.313Z,3.73
2023-03-22T06:33:26.106Z,3.74
2023-03-22T06:35:59.714Z,3.77
2023-03-22T06:38:32.849Z,3.92
2023-03-22T06:40:59.562Z,4.04
2023-03-22T06:43:27.324Z,4.08
2023-03-22T06:46:01.500Z,4.22
2023-03-22T06:48:34.338Z,4.31
2023-03-22T06:51:06.793Z,4.35
2023-03-22T06:53:35.486Z,4.49
2023-03-22T06:56:03.789Z,4.59
2023-03-22T06:58:34.815Z,4.68
2023-03-22T07:01:01.637Z,4.86
2023-03-22T07:03:31.769Z,5.00
2023-03-22T07:06:06.922Z,5.15
2023-03-22T07:08:37.707Z,5.26
2023-03-22T07:11:06.328Z,5.39
2023-03-22T07:13:33.533Z,5.54
2023-03-22T07:16:03.963Z,5.77
2023-03-22T07:18:43.722Z,5.87
2023-03-22T07:21:10.699Z,5.96
2023-03-22T07:23:39.930Z,6.14
2023-03-22T07:26:10.767Z,6.28
2023-03-22T07:28:41.527Z,6.53
2023-03-22T07:31:12.058Z,6.65
2023-03-22T07:34:00.425Z,6.88
2023-03-22T07:36:29.980Z,7.05
2023-03-22T07:38:57.104Z,7.29
2023-03-22T07:41:33.920Z,7.59
2023-03-22T07:44:33.067Z,7.91
2023-03-22T07:47:40.025Z,8.20
2023-03-22T07:50:27.824Z,8.42
2023-03-22T07:52:56.759Z,8.71
2023-03-22T07:55:24.190Z,8.85
2023-03-22T07:57:51.255Z,9.02
2023-03-22T08:00:18.498Z,9.22
2023-03-22T08:02:54.719Z,9.43
2023-03-22T08:05:51.984Z,9.55
2023-03-22T08:08:20.623Z,9.70
2023-03-22T08:10:51.573Z,9.83
2023-03-22T08:13:18.223Z,9.98
2023-03-22T08:15:44.829Z,10.16
2023-03-22T08:18:11.461Z,10.32
2023-03-22T08:20:40.062Z,10.48
2023-03-22T08:23:15.967Z,10.61
2023-03-22T08:25:58.067Z,10.70
2023-03-22T08:28:24.708Z,10.79
2023-03-22T08:30:51.652Z,10.95
2023-03-22T08:33:22.039Z,11.16
2023-03-22T08:35:48.680Z,11.24
2023-03-22T08:38:15.566Z,11.35
2023-03-22T08:40:47.417Z,11.50
2023-03-22T08:43:17.359Z,11.64
2023-03-22T08:45:44.496Z,11.82
2023-03-22T08:48:15.608Z,11.99
2023-03-22T08:51:21.492Z,12.19
2023-03-22T08:54:02.298Z,12.32
2023-03-22T08:56:50.221Z,12.45
2023-03-22T08:59:38.213Z,12.59
2023-03-22T09:02:27.431Z,12.75
2023-03-22T09:04:55.373Z,12.87
2023-03-22T09:07:22.481Z,13.08
2023-03-22T09:09:58.548Z,13.17
2023-03-22T09:12:26.249Z,13.12
2023-03-22T09:14:53.852Z,13.43
2023-03-22T09:17:22.572Z,13.68
2023-03-22T09:19:51.407Z,13.76
2023-03-22T09:22:21.056Z,13.79
2023-03-22T09:24:50.435Z,13.78
2023-03-22T09:27:17.387Z,13.78
2023-03-22T09:29:43.961Z,13.65
2023-03-22T09:32:17.167Z,13.75
2023-03-22T09:34:48.180Z,13.70
2023-03-22T09:37:15.191Z,13.37
2023-03-22T09:39:49.268Z,13.35
2023-03-22T09:42:28.316Z,13.27
2023-03-22T09:44:56.849Z,13.28
2023-03-22T09:47:45.194Z,13.46
2023-03-22T09:50:18.644Z,13.73
2023-03-22T09:52:45.218Z,14.03
2023-03-22T09:55:37.575Z,14.29
2023-03-22T09:58:28.610Z,14.50
2023-03-22T10:01:14.594Z,14.70
2023-03-22T10:04:07.824Z,14.89
2023-03-22T10:06:34.481Z,15.10
2023-03-22T10:09:20.776Z,15.46
2023-03-22T10:11:53.670Z,15.63
2023-03-22T10:15:01.859Z,15.47
2023-03-22T10:17:29.925Z,15.49
2023-03-22T10:20:09.109Z,15.28
2023-03-22T10:22:40.764Z,15.03
2023-03-22T10:25:08.741Z,14.82
2023-03-22T10:27:36.975Z,14.84
2023-03-22T10:30:21.189Z,15.24
2023-03-22T10:33:16.847Z,15.56
2023-03-22T10:35:44.082Z,15.72
2023-03-22T10:38:21.860Z,15.84
2023-03-22T10:40:50.066Z,16.02
2023-03-22T10:43:31.757Z,16.41
2023-03-22T10:46:01.223Z,16.45
2023-03-22T10:48:33.099Z,16.56
2023-03-22T10:51:01.302Z,16.55
2023-03-22T10:53:47.761Z,16.65
2023-03-22T10:56:16.920Z,16.76
2023-03-22T10:58:43.526Z,16.95
2023-03-22T11:01:29.482Z,16.94
2023-03-22T11:04:16.478Z,17.06
2023-03-22T11:06:54.711Z,17.17
2023-03-22T11:09:24.393Z,16.75
2023-03-22T11:12:03.619Z,16.63
2023-03-22T11:14:42.079Z,16.83
2023-03-22T11:17:14.864Z,17.08
2023-03-22T11:19:53.975Z,17.28
2023-03-22T11:22:40.513Z,17.20
2023-03-22T11:25:34.059Z,17.33
2023-03-22T11:28:16.372Z,17.32
2023-03-22T11:30:58.696Z,17.35
2023-03-22T11:33:28.775Z,17.57
2023-03-22T11:35:57.657Z,17.75
2023-03-22T11:38:35.562Z,17.64
2023-03-22T11:41:06.577Z,17.89
2023-03-22T11:43:37.120Z,18.05
2023-03-22T11:46:05.270Z,18.04
2023-03-22T11:48:33.310Z,17.95
2023-03-22T11:51:12.462Z,17.55
2023-03-22T11:53:42.597Z,17.28
2023-03-22T11:56:11.460Z,16.97
2023-03-22T11:58:48.555Z,17.31
2023-03-22T12:01:21.577Z,17.35
2023-03-22T12:03:54.507Z,17.52
2023-03-22T12:06:31.883Z,18.16
2023-03-22T12:09:19.114Z,18.37
2023-03-22T12:11:49.620Z,18.19
2023-03-22T12:14:23.305Z,18.05
2023-03-22T12:16:59.277Z,17.69
2023-03-22T12:19:28.785Z,17.76
2023-03-22T12:21:56.235Z,18.12
2023-03-22T12:24:27.229Z,18.55
2023-03-22T12:27:25.626Z,18.73
2023-03-22T12:29:59.273Z,19.05
2023-03-22T12:32:30.849Z,18.97
2023-03-22T12:35:14.078Z,18.92
2023-03-22T12:37:47.642Z,18.95
2023-03-22T12:40:16.867Z,18.71
2023-03-22T12:43:07.880Z,18.59
2023-03-22T12:45:40.468Z,18.51
2023-03-22T12:48:14.399Z,18.25
2023-03-22T12:50:49.480Z,18.23
2023-03-22T12:53:18.771Z,18.20
2023-03-22T12:55:47.208Z,18.58
2023-03-22T12:58:19.813Z,18.76
2023-03-22T13:00:59.402Z,18.35
2023-03-22T13:03:27.005Z,18.40
2023-03-22T13:06:06.324Z,18.44
2023-03-22T13:09:01.960Z,18.57
2023-03-22T13:11:28.562Z,18.83
2023-03-22T13:13:55.092Z,19.02
2023-03-22T13:16:24.586Z,18.73
2023-03-22T13:18:51.215Z,18.98
2023-03-22T13:21:21.246Z,19.30
2023-03-22T13:24:01.052Z,18.52
2023-03-22T13:26:58.953Z,18.17
2023-03-22T13:29:37.502Z,17.83
2023-03-22T13:32:28.582Z,17.75
2023-03-22T13:34:55.827Z,17.95
2023-03-22T13:37:35.702Z,18.63
2023-03-22T13:40:22.128Z,19.12
2023-03-22T13:42:50.680Z,19.08
2023-03-22T13:45:33.971Z,19.09
2023-03-22T13:48:13.354Z,19.08
2023-03-22T13:50:40.388Z,18.91
2023-03-22T13:53:22.832Z,19.42
2023-03-22T13:55:51.420Z,19.10
2023-03-22T13:58:30.966Z,19.04
2023-03-22T14:00:58.031Z,19.39
2023-03-22T14:03:35.765Z,18.99
2023-03-22T14:06:15.172Z,19.01
2023-03-22T14:08:44.172Z,18.94
2023-03-22T14:11:17.997Z,19.19
2023-03-22T14:13:51.326Z,19.01
2023-03-22T14:16:48.661Z,18.44
2023-03-22T14:19:29.073Z,18.63
